Αρχική σελίδα
METAR-TAF:

METAR-TAF

Αεροδρόμια :

Μπαμάκο, Μάλι

γεωγραφικό πλάτος: 12-32N, γεωγραφικό μήκος: 007-57W, υψόμετρο: 380 μ

Παρών καιρός

Η αναφορά έγινε 22 λεπτά πριν, στις 00:00 UTC
Άνεμος 4 kt από Β/BA
Θερμοκρασία 17°C
Υγρασία 23%
Πίεση 1018 hPa
Ορατότητα 10 χλμ και άνω
Δεν υπάρχουν νέφη με βάση κάτω από τα 1500 μ. και δεν υπάρχουν νέφη σωρειτομελανίτες.

METAR: GABS 220000Z 03004KT CAVOK 17/M04 Q1018 NOSIG

Χρόνος: 00:22 (00:22 UTC)

Πρόγνωση Καιρού

Η αναφορά έγινε 1 ώρα και 22 λεπτά πριν, στις 23:00 UTC
Η πρόγνωση ισχύει από τις 22 στις 00 UTC έως τις 23 στις 06 UTC
Άνεμος 10 kt από BA
Ορατότητα: 8000 μ

TAF: GABS 212300Z 2200/2306 04010KT 8000 NSC

Μετεωρολογικές αναφορές και προγνώσεις για περισσότερα από 4000 αεροδρόμια (δελτία METAR και TAF).

Οι διαθέσιμοι σταθμοί απεικονίζονται στο χάρτη με κίτρινες και κόκκινες κουκκίδες.

Μετακινήστε το ποντίκι πάνω από τις κουκκίδες για να δείτε το όνομα του σταθμού.

Στη συνέχεια, κάντε κλικ για να δείτε τις μετεωρολογικές αναφορές και τις προγνώσεις καιρού.

Για να αλλάξετε το χάρτη: κάντε κλικ στα πράσινα κουμπιά με τον μαύρο σταυρό για να ζουμάρετε, στο πράσινο κουμπί με την παύλα για να αφαιρέσετε το ζουμ ή στα πράσινα βέλη για να αντιπαραβάλλετε χάρτες.


METAR-TAF: